• Join FlightAware (Why Join?)
  • Login
  • US Flag 
05:27AM EST


 

Airport Tracker/Info


-or-


 

Live Flight TrackerFlight Track Log ✈ N983CA ✈ 27-Apr-2013 ✈ KDEN - KPSP

Flight Track Log - Related Links

Times and Time Zones

All times are in EDT time to prevent confusion due to time zone crossing. See the N983CA flight status page for this flight to view local times or setup timezone preferences in your user account.

Time Position Orientation Groundspeed Altitude Reporting Facility
EDT Latitude Longitude Course Direction KTS MPH feet Rate Location/Type
11:36AM 39.8333 -104.7667 270° West 202 232 6,900  Level Denver TRACON
11:37AM 39.8167 -104.8500 255° West 238 274 9,100 1,680 Climbing Denver TRACON
11:38AM 39.7919 -104.9169 244° Southwest 262 302 10,100 1,620 Climbing Denver Center
11:39AM 39.6628 -105.2528 255° West  Level FlightAware Approximate
11:39AM 39.7547 -105.0294 247° West 311 358 12,200  Level Denver Center
11:40AM 39.6182 -105.3996 244° Southwest  Level FlightAware Approximate
11:40AM 39.7186 -105.1347 246° West 317 365 14,400  Level Denver Center
11:41AM 39.5667 -105.5424 270° West  Level FlightAware Approximate
11:41AM 39.6811 -105.2439 246° West 330 380 16,300  Level Denver Center
11:42AM 39.6394 -105.3656 246° West 346 398 17,800 1,440 Climbing Denver Center
11:43AM 39.5981 -105.4839 246° West 360 414 19,300 1,260 Climbing Denver Center
11:44AM 39.5547 -105.6103 246° West 360 414 20,500 1,020 Climbing Denver Center
11:45AM 39.5186 -105.7361 250° West 373 429 21,500 960 Climbing Denver Center
11:46AM 39.4844 -105.8575 250° West 371 427 22,600 960 Climbing Denver Center
11:47AM 39.4494 -105.9900 251° West 383 441 23,600 1,020 Climbing Denver Center
11:49AM 39.3833 -106.1961 270° West  Level FlightAware Approximate
11:49AM 39.3642 -106.2881 270° West 403 464 25,800  Level Denver Center
11:50AM 39.3286 -106.4206 251° West 406 467 26,600 600 Climbing Denver Center
11:52AM 39.2601 -106.6098 252° West  Level FlightAware Approximate
11:53AM 39.1761 -106.8294 231° Southwest 423 487 28,500  Level Denver Center
11:54AM 39.0911 -106.9658 231° Southwest 434 499 29,300 600 Climbing Denver Center
11:55AM 39.0164 -107.0833 231° Southwest 438 504 29,800 420 Climbing Denver Center
11:56AM 38.9289 -107.2214 231° Southwest 444 511 30,200 540 Climbing Denver Center
11:57AM 38.8539 -107.3386 231° Southwest 443 510 31,000 720 Climbing Denver Center
11:58AM 38.7808 -107.4528 231° Southwest 436 502 31,700 480 Climbing Denver Center
11:59AM 38.7460 -107.4742 231° Southwest  Level FlightAware Approximate
11:59AM 38.7022 -107.5942 235° Southwest 434 499 32,000  Level Denver Center
12:00PM 38.6367 -107.7192 236° Southwest 438 504 32,000  Level Denver Center
12:02PM 38.5600 -107.8703 237° Southwest 450 518 32,000  Level Denver Center
12:03PM 38.4917 -107.9994 236° Southwest 456 525 32,000  Level Denver Center
12:04PM 38.4122 -108.1542 237° Southwest 464 534 32,000  Level Denver Center
12:05PM 38.3422 -108.2878 236° Southwest 470 541 32,000  Level Denver Center
12:06PM 38.2719 -108.4219 236° Southwest 474 545 32,000  Level Denver Center
12:07PM 38.1894 -108.5775 236° Southwest 471 542 32,000  Level Denver Center
12:08PM 38.1192 -108.7117 236° Southwest 475 547 32,000  Level Denver Center
12:09PM 38.0461 -108.8492 236° Southwest 471 542 32,000  Level Denver Center
12:10PM 37.9647 -108.9964 235° Southwest 463 533 32,000  Level Denver Center
12:11PM 37.8947 -109.1258 236° Southwest 464 534 32,000  Level Denver Center
12:12PM 37.8131 -109.2767 236° Southwest 465 535 32,000  Level Denver Center
12:13PM 37.7431 -109.4069 236° Southwest 467 537 32,000  Level Denver Center
12:14PM 37.6611 -109.5569 235° Southwest 466 536 32,000  Level Denver Center
12:15PM 37.5906 -109.6872 236° Southwest 470 541 32,000  Level Denver Center
12:16PM 37.5078 -109.8361 235° Southwest 468 539 32,000  Level Denver Center
12:17PM 37.4367 -109.9639 235° Southwest 467 537 32,000  Level Denver Center
12:18PM 37.3656 -110.0928 235° Southwest 468 539 32,000  Level Denver Center
12:19PM 37.2900 -110.2261 235° Southwest 466 536 32,000  Level Denver Center
12:20PM 37.2006 -110.3869 235° Southwest 467 537 32,000  Level Denver Center
12:21PM 37.1261 -110.5200 235° Southwest 465 535 32,000  Level Denver Center
12:22PM 37.0503 -110.6531 234° Southwest 468 539 32,000  Level Denver Center
12:23PM 36.9750 -110.7847 234° Southwest 466 536 32,000  Level Denver Center
12:24PM 36.9011 -110.9164 235° Southwest 464 534 32,000  Level Denver Center
12:25PM 36.8256 -111.0500 235° Southwest 467 537 32,000  Level Denver Center
12:26PM 36.7494 -111.1819 234° Southwest 468 539 32,000  Level Denver Center
12:27PM 36.6583 -111.3400 234° Southwest 468 539 32,000  Level Denver Center
12:28PM 36.5825 -111.4717 234° Southwest 468 539 32,000  Level Denver Center
12:29PM 36.5058 -111.6033 234° Southwest 468 539 32,000  Level Denver Center
12:30PM 36.4300 -111.7347 234° Southwest 469 540 32,000  Level Denver Center
12:31PM 36.3533 -111.8650 234° Southwest 467 537 32,000  Level Denver Center
12:32PM 36.2772 -111.9964 234° Southwest 468 539 32,000  Level Denver Center
12:33PM 36.2000 -112.1256 233° Southwest 467 537 32,000  Level Denver Center
12:35PM 36.0908 -112.3089 234° Southwest 470 541 32,000  Level Los Angeles Center
12:36PM 36.0147 -112.4386 234° Southwest 467 537 32,000  Level Los Angeles Center
12:37PM 35.9344 -112.5722 233° Southwest 468 539 32,000  Level Los Angeles Center
12:38PM 35.8578 -112.7006 234° Southwest 468 539 32,000  Level Los Angeles Center
12:39PM 35.7817 -112.8272 233° Southwest 466 536 32,000  Level Los Angeles Center
12:40PM 35.7039 -112.9558 233° Southwest 471 542 32,000  Level Los Angeles Center
12:41PM 35.6178 -113.0986 233° Southwest 463 533 32,000  Level Los Angeles Center
12:42PM 35.5383 -113.2289 233° Southwest 470 541 32,000  Level Los Angeles Center
12:43PM 35.4597 -113.3578 233° Southwest 467 537 32,000  Level Los Angeles Center
12:44PM 35.3833 -113.4839 233° Southwest 467 537 32,000  Level Los Angeles Center
12:45PM 35.2903 -113.6350 233° Southwest 467 537 32,000  Level Los Angeles Center
12:46PM 35.2131 -113.7611 233° Southwest 468 539 32,000  Level Los Angeles Center
12:47PM 35.1358 -113.8861 233° Southwest 465 535 32,000  Level Los Angeles Center
12:48PM 35.0533 -114.0178 233° Southwest 468 539 32,000 -300 Level Los Angeles Center
12:49PM 34.9731 -114.1458 233° Southwest 475 547 31,400 -600 Descending Los Angeles Center
12:50PM 34.8911 -114.2764 233° Southwest 483 556 30,800 -660 Descending Los Angeles Center
12:51PM 34.7911 -114.4347 232° Southwest 488 562 30,100 -420 Descending Los Angeles Center
12:52PM 34.7064 -114.5656 232° Southwest 490 564 30,000 -60 Descending Los Angeles Center
12:53PM 34.6261 -114.6850 231° Southwest 478 550 30,000 -180 Level Los Angeles Center
12:54PM 34.5428 -114.8106 231° Southwest 477 549 29,700 -660 Descending Los Angeles Center
12:55PM 34.4581 -114.9383 231° Southwest 485 558 28,700 -1,080 Descending Los Angeles Center
12:56PM 34.3589 -115.0878 231° Southwest 478 550 27,500 -1,080 Descending Los Angeles Center
12:57PM 34.2761 -115.2103 231° Southwest 472 543 26,500 -1,020 Descending Los Angeles Center
12:59PM 34.1950 -115.3319 231° Southwest 468 539 25,500 -1,140 Descending Los Angeles Center
01:00PM 34.1139 -115.4508 231° Southwest 461 531 24,200 -1,980 Descending Los Angeles Center
01:01PM 34.0397 -115.5775 235° Southwest 467 537 21,500 -3,360 Descending Los Angeles Center
01:02PM 33.9889 -115.7125 246° West 449 517 17,200 -4,320 Descending Los Angeles Center
01:03PM 33.9317 -115.8625 245° Southwest 420 483 12,600 -3,180 Descending Los Angeles Center
01:04PM 33.8781 -115.9603 237° Southwest 368 423 10,700 -1,680 Descending Los Angeles Center
01:05PM 33.8250 -116.0422 232° Southwest 334 384 9,200 -1,500 Descending Los Angeles Center
01:06PM 33.7719 -116.1189 230° Southwest 314 361 7,600 -1,140 Descending Los Angeles Center
01:07PM 33.7542 -116.1958 254° West 282 325 6,900 -660 Descending Los Angeles Center
01:08PM 33.7578 -116.2894 273° West 268 308 6,300 -600 Descending Los Angeles Center